KAUG/AUG METAR and TAF weather

Enter ICAO airport designator
Station Type Date Time Source
KAUG METAR 2024/04/15 08:53 UTC NOAA

KAUG 150853Z AUTO 32003KT 10SM CLR 06/04 A2969 RMK AO2 SLP055 T00610039 53001


Station Type Date Time Source
KAUG Decoded METAR 2024/04/15 08:53 UTC NOAA

AUGUSTA STATE AIRPORT, ME, United States (KAUG) 44-19N 069-48W 109M
Apr 15, 2024 - 04:53 AM EDT / 2024.04.15 0853 UTC
Wind: from the NW (320 degrees) at 3 MPH (3 KT):0
Visibility: 10 mile(s):0
Sky conditions: clear
Temperature: 43.0 F (6.1 C)
Dew Point: 39.0 F (3.9 C)
Relative Humidity: 85%
Pressure (altimeter): 29.69 in. Hg (1005 hPa)
Pressure tendency: 0.00 inches (0.1 hPa) higher than three hours ago
ob: KAUG 150853Z AUTO 32003KT 10SM CLR 06/04 A2969 RMK AO2 SLP055 T00610039 53001
cycle: 9

Station Type Date Time Source
KAUG TAF 2024/04/15 09:57 UTC NOAA